Time;durP1;ratioP1;P1;durP2;ratioP2;P2;SDS_P1;SDS_P2;PMS_P1;PMS_P2;Temp;Humidity;BMP_temperature;BMP_pressure;BME280_temperature;BME280_humidity;BME280_pressure;Samples;Min_cycle;Max_cycle;Signal;HPM_P1;HPM_P2
2022/09/13 00:02:13;;;;;;;18.17;5.10;;;23.00;99.90;;;;;;5070787;28;20182;-74
2022/09/13 00:04:40;;;;;;;16.70;4.43;;;23.00;99.90;;;;;;5048090;28;20183;-74
2022/09/13 00:07:06;;;;;;;19.90;5.30;;;23.00;99.90;;;;;;5070195;28;20183;-74
2022/09/13 00:09:36;;;;;;;15.50;4.33;;;23.00;99.90;;;;;;5053258;28;20179;-74
2022/09/13 00:12:02;;;;;;;19.13;4.63;;;23.00;99.90;;;;;;5052535;28;20187;-74
2022/09/13 00:14:29;;;;;;;16.43;4.73;;;23.00;99.90;;;;;;5053239;28;20264;-74
2022/09/13 00:16:55;;;;;;;11.07;4.40;;;23.00;99.90;;;;;;5067214;28;20258;-74
2022/09/13 00:19:21;;;;;;;20.73;5.20;;;23.00;99.90;;;;;;5069632;28;20200;-74
2022/09/13 00:21:47;;;;;;;20.60;4.63;;;23.00;99.90;;;;;;5065569;28;20675;-74
2022/09/13 00:24:14;;;;;;;20.35;4.70;;;23.00;99.90;;;;;;5051295;28;20240;-74
2022/09/13 00:26:40;;;;;;;17.55;4.70;;;23.00;99.90;;;;;;5049092;28;20190;-74
2022/09/13 00:29:06;;;;;;;13.55;4.70;;;23.00;99.90;;;;;;5071257;28;20217;-74
2022/09/13 00:31:32;;;;;;;15.88;4.53;;;23.00;99.90;;;;;;5042342;28;20258;-74
2022/09/13 00:34:00;;;;;;;14.15;4.63;;;22.90;99.90;;;;;;5052650;28;20203;-74
2022/09/13 00:36:27;;;;;;;19.60;5.00;;;22.90;99.90;;;;;;5047106;28;20194;-74
2022/09/13 00:38:53;;;;;;;20.50;4.43;;;22.90;99.90;;;;;;5068659;28;20282;-74
2022/09/13 00:41:21;;;;;;;13.07;4.22;;;22.90;99.90;;;;;;5066453;28;20178;-74
2022/09/13 00:43:50;;;;;;;14.60;4.80;;;22.90;99.90;;;;;;5069895;28;20179;-74
2022/09/13 00:46:45;;;;;;;15.35;4.75;;;22.90;99.90;;;;;;5071009;28;20171;-74
2022/09/13 00:49:35;;;;;;;22.30;4.95;;;22.90;99.90;;;;;;5070501;28;20193;-74
2022/09/13 00:52:13;;;;;;;15.17;4.07;;;22.90;99.90;;;;;;5045740;28;20187;-74
2022/09/13 00:55:00;;;;;;;12.85;4.20;;;22.90;99.90;;;;;;5083645;28;20194;-74
2022/09/13 00:57:27;;;;;;;17.03;4.40;;;22.90;99.90;;;;;;5052319;28;20175;-74
2022/09/13 01:00:13;;;;;;;14.40;4.43;;;22.80;99.90;;;;;;5068438;28;20232;-74
2022/09/13 01:02:44;;;;;;;14.07;4.73;;;22.90;99.90;;;;;;5064679;28;20282;-74
2022/09/13 01:05:18;;;;;;;13.30;4.60;;;22.90;99.90;;;;;;5068026;28;20186;-74
2022/09/13 01:07:45;;;;;;;15.02;4.50;;;22.90;99.90;;;;;;5064572;28;20182;-74
2022/09/13 01:10:11;;;;;;;13.00;4.07;;;22.80;99.90;;;;;;5049388;28;20194;-74
2022/09/13 01:13:15;;;;;;;17.67;5.00;;;22.80;99.90;;;;;;5052010;28;20271;-74
2022/09/13 01:15:41;;;;;;;9.93;3.67;;;22.80;99.90;;;;;;5044613;28;20596;-75
2022/09/13 01:18:10;;;;;;;15.00;4.40;;;22.80;99.90;;;;;;5043397;28;20217;-72
2022/09/13 01:21:19;;;;;;;13.27;4.40;;;22.80;99.90;;;;;;5052336;28;20655;-74
2022/09/13 01:24:04;;;;;;;19.05;4.85;;;22.80;99.90;;;;;;5051066;28;20674;-74
2022/09/13 01:27:17;;;;;;;15.55;4.47;;;22.80;99.90;;;;;;5048431;28;20197;-74
2022/09/13 01:30:08;;;;;;;12.52;4.47;;;22.70;99.90;;;;;;5068651;28;20543;-74
2022/09/13 01:33:17;;;;;;;11.15;3.85;;;22.80;99.90;;;;;;5069035;28;20532;-74
2022/09/13 01:36:35;;;;;;;15.40;4.53;;;22.80;99.90;;;;;;5058777;28;20196;-74
2022/09/13 01:39:06;;;;;;;17.60;4.00;;;22.80;99.90;;;;;;5064224;28;20206;-74
2022/09/13 01:42:17;;;;;;;11.10;4.20;;;22.80;99.90;;;;;;5061041;28;20183;-74
2022/09/13 01:45:02;;;;;;;19.40;4.97;;;22.80;99.90;;;;;;5053457;28;20654;-74
2022/09/13 01:47:48;;;;;;;13.47;4.33;;;22.80;99.90;;;;;;5080842;28;20183;-74
2022/09/13 01:50:56;;;;;;;14.43;3.93;;;22.80;99.90;;;;;;5063396;28;20190;-72
2022/09/13 01:53:59;;;;;;;14.43;4.68;;;22.80;99.90;;;;;;5047636;28;20301;-73
2022/09/13 01:56:46;;;;;;;16.50;4.47;;;22.80;99.90;;;;;;5050734;28;20190;-73
2022/09/13 01:59:53;;;;;;;14.10;4.03;;;22.70;99.90;;;;;;5060556;28;20218;-73
2022/09/13 02:02:27;;;;;;;9.80;3.90;;;22.80;99.90;;;;;;5065825;28;20265;-73
2022/09/13 02:05:23;;;;;;;16.67;4.83;;;22.70;99.90;;;;;;5069590;28;20245;-73
2022/09/13 02:08:16;;;;;;;14.60;4.43;;;22.80;99.90;;;;;;5046225;28;20187;-73
2022/09/13 02:10:53;;;;;;;15.63;4.00;;;22.80;99.90;;;;;;5049065;28;20392;-73
2022/09/13 02:13:29;;;;;;;14.35;4.32;;;22.80;99.90;;;;;;5069758;28;20198;-73
2022/09/13 02:16:07;;;;;;;15.37;4.20;;;22.80;99.90;;;;;;5068037;28;20198;-73
2022/09/13 02:18:42;;;;;;;15.90;4.00;;;22.80;99.90;;;;;;5068965;28;20663;-73
2022/09/13 02:21:20;;;;;;;13.97;4.17;;;22.70;99.90;;;;;;5066966;28;20189;-73
2022/09/13 02:24:32;;;;;;;18.63;4.27;;;22.70;99.90;;;;;;5067111;28;20193;-73
2022/09/13 02:27:07;;;;;;;12.13;4.45;;;22.70;99.90;;;;;;5081102;28;20179;-73
2022/09/13 02:29:38;;;;;;;13.00;4.47;;;22.70;99.90;;;;;;5065372;28;20193;-73
2022/09/13 02:32:39;;;;;;;17.20;4.43;;;22.70;99.90;;;;;;5044444;28;20533;-73
2022/09/13 02:35:23;;;;;;;11.30;3.93;;;22.70;99.90;;;;;;5067245;28;20225;-73
2022/09/13 02:38:01;;;;;;;13.32;4.13;;;22.70;99.90;;;;;;5050538;28;20179;-74
2022/09/13 02:40:45;;;;;;;12.97;4.43;;;22.70;99.90;;;;;;5063474;28;20600;-74
2022/09/13 02:43:31;;;;;;;14.77;4.60;;;22.70;99.90;;;;;;5066154;28;20181;-74
2022/09/13 02:46:56;;;;;;;17.55;4.63;;;22.70;99.90;;;;;;5067919;28;20205;-74
2022/09/13 02:49:57;;;;;;;16.93;4.53;;;22.70;99.90;;;;;;5069308;28;20183;-74
2022/09/13 02:52:45;;;;;;;16.63;4.87;;;22.70;99.90;;;;;;5073969;28;20179;-74
2022/09/13 02:55:36;;;;;;;15.90;4.63;;;22.70;99.90;;;;;;5062225;28;20209;-74
2022/09/13 02:58:09;;;;;;;18.37;4.47;;;22.70;99.90;;;;;;5068020;28;20186;-74
2022/09/13 03:00:36;;;;;;;16.87;4.20;;;22.70;99.90;;;;;;5064511;28;20183;-74
2022/09/13 03:03:09;;;;;;;12.50;4.33;;;22.70;99.90;;;;;;5051077;28;20175;-74
2022/09/13 03:05:36;;;;;;;20.20;4.93;;;22.70;99.90;;;;;;5073955;28;20267;-74
2022/09/13 03:08:06;;;;;;;18.60;4.90;;;22.70;99.90;;;;;;5063401;28;20352;-72
2022/09/13 03:11:18;;;;;;;15.10;4.73;;;22.70;99.90;;;;;;5069954;28;20564;-74
2022/09/13 03:14:41;;;;;;;16.40;4.47;;;22.70;99.90;;;;;;5063470;28;20211;-74
2022/09/13 03:17:53;;;;;;;17.83;4.93;;;22.80;99.90;;;;;;5046790;28;20219;-74
2022/09/13 03:21:02;;;;;;;14.10;4.32;;;22.80;99.90;;;;;;5051138;28;20186;-74
2022/09/13 03:24:09;;;;;;;17.23;4.95;;;22.70;99.90;;;;;;5084178;28;20195;-74
2022/09/13 03:27:15;;;;;;;14.40;4.60;;;22.80;99.90;;;;;;5071307;28;20214;-74
2022/09/13 03:30:03;;;;;;;16.05;4.38;;;22.80;99.90;;;;;;5076872;28;20186;-74
2022/09/13 03:33:19;;;;;;;19.70;5.17;;;22.70;99.90;;;;;;5038614;28;20291;-74
2022/09/13 03:36:05;;;;;;;14.40;4.80;;;22.80;99.90;;;;;;5076122;28;20194;-74
2022/09/13 03:38:52;;;;;;;14.80;4.45;;;22.80;99.90;;;;;;5052685;28;20679;-75
2022/09/13 03:41:29;;;;;;;14.93;4.45;;;22.80;99.90;;;;;;5048180;28;20623;-74
2022/09/13 03:44:12;;;;;;;16.58;4.93;;;22.80;99.90;;;;;;5071483;28;20226;-74
2022/09/13 03:46:47;;;;;;;20.30;5.23;;;22.80;99.90;;;;;;5054264;28;20194;-74
2022/09/13 03:49:19;;;;;;;19.58;5.07;;;22.80;99.90;;;;;;5057315;28;20204;-74
2022/09/13 03:51:51;;;;;;;16.63;5.23;;;22.80;99.90;;;;;;5076780;28;20198;-74
2022/09/13 03:54:27;;;;;;;11.33;4.27;;;22.80;99.90;;;;;;5070675;28;20292;-74
2022/09/13 03:57:12;;;;;;;14.73;4.53;;;22.80;99.90;;;;;;5078973;28;20252;-74
2022/09/13 03:59:47;;;;;;;19.25;5.28;;;22.80;99.90;;;;;;5053761;28;20192;-74
2022/09/13 04:02:16;;;;;;;16.27;4.93;;;22.80;99.90;;;;;;5070844;28;20193;-74
2022/09/13 04:04:45;;;;;;;13.18;5.22;;;22.90;99.90;;;;;;5077211;28;20498;-74
2022/09/13 04:07:19;;;;;;;18.17;5.70;;;22.90;99.90;;;;;;5067024;28;20553;-74
2022/09/13 04:09:46;;;;;;;14.80;4.77;;;22.90;99.90;;;;;;5062405;28;20194;-74
2022/09/13 04:12:14;;;;;;;18.00;5.30;;;23.00;99.90;;;;;;5062728;28;20199;-74
2022/09/13 04:14:45;;;;;;;16.10;5.45;;;23.00;99.90;;;;;;5073285;28;20211;-74
2022/09/13 04:17:12;;;;;;;16.15;4.88;;;23.00;99.90;;;;;;5070911;28;20190;-74
2022/09/13 04:19:39;;;;;;;18.52;5.18;;;22.90;99.90;;;;;;5052772;28;20216;-74
2022/09/13 04:22:06;;;;;;;17.42;4.80;;;23.00;99.90;;;;;;5071959;28;20261;-74
2022/09/13 04:24:32;;;;;;;12.93;4.20;;;23.00;99.90;;;;;;5071961;28;20788;-74
2022/09/13 04:27:00;;;;;;;17.70;4.68;;;23.00;99.90;;;;;;5068687;28;20190;-72
2022/09/13 04:29:27;;;;;;;13.75;4.40;;;23.00;99.90;;;;;;5088810;28;20187;-73
2022/09/13 04:31:54;;;;;;;15.40;5.28;;;23.00;99.90;;;;;;5069418;28;20190;-74
2022/09/13 04:34:21;;;;;;;19.70;4.85;;;23.10;99.90;;;;;;5076083;28;20234;-74
2022/09/13 04:36:51;;;;;;;17.23;4.80;;;23.10;99.90;;;;;;5079093;28;20191;-74
2022/09/13 04:39:19;;;;;;;20.63;5.15;;;23.10;99.90;;;;;;5069447;28;20203;-74
2022/09/13 04:41:47;;;;;;;16.63;4.47;;;23.10;99.90;;;;;;5048329;28;20904;-74
2022/09/13 04:44:19;;;;;;;14.48;4.53;;;23.10;99.90;;;;;;5066289;28;20644;-74
2022/09/13 04:46:50;;;;;;;16.97;4.57;;;23.10;99.90;;;;;;5066648;28;20192;-74
2022/09/13 04:49:19;;;;;;;13.07;4.47;;;23.20;99.90;;;;;;5070332;28;20199;-74
2022/09/13 04:51:47;;;;;;;13.40;4.47;;;23.20;99.90;;;;;;5069968;28;20194;-74
2022/09/13 04:54:14;;;;;;;16.10;5.00;;;23.20;99.90;;;;;;5069618;28;20222;-75
2022/09/13 04:56:40;;;;;;;14.48;4.18;;;23.30;99.90;;;;;;5061559;28;20202;-74
2022/09/13 04:59:06;;;;;;;11.82;4.25;;;23.30;99.90;;;;;;5054353;28;20657;-74
2022/09/13 05:01:34;;;;;;;17.65;4.75;;;23.40;99.90;;;;;;5050558;28;20600;-74
2022/09/13 05:04:00;;;;;;;11.30;4.95;;;23.50;99.90;;;;;;5053276;28;20619;-74
2022/09/13 05:06:27;;;;;;;13.02;4.28;;;23.60;99.90;;;;;;5055705;28;20290;-74
2022/09/13 05:08:56;;;;;;;13.82;4.85;;;23.60;99.90;;;;;;5074343;28;20183;-74
2022/09/13 05:11:27;;;;;;;12.75;4.03;;;23.70;99.90;;;;;;5073816;28;20187;-74
2022/09/13 05:13:57;;;;;;;12.20;4.25;;;23.70;99.90;;;;;;5065529;28;20210;-74
2022/09/13 05:16:31;;;;;;;18.70;5.07;;;23.80;99.90;;;;;;5066678;28;20225;-74
2022/09/13 05:18:58;;;;;;;16.70;4.75;;;23.90;99.90;;;;;;5051916;28;20595;-74
2022/09/13 05:21:26;;;;;;;13.23;4.15;;;24.00;99.90;;;;;;5070655;28;20186;-74
2022/09/13 05:23:55;;;;;;;14.18;4.25;;;24.00;99.90;;;;;;5067023;28;20579;-74
2022/09/13 05:26:26;;;;;;;22.45;4.65;;;24.10;99.90;;;;;;5078877;28;20290;-75
2022/09/13 05:28:52;;;;;;;16.98;4.38;;;24.10;99.90;;;;;;5054309;28;20208;-75
2022/09/13 05:31:27;;;;;;;21.85;4.63;;;24.10;99.90;;;;;;5071520;28;20198;-75
2022/09/13 05:34:04;;;;;;;16.08;4.03;;;24.20;99.90;;;;;;5068274;28;20210;-74
2022/09/13 05:36:30;;;;;;;15.48;4.38;;;24.30;99.90;;;;;;5093728;28;20181;-74
2022/09/13 05:38:57;;;;;;;13.27;4.57;;;24.30;99.90;;;;;;5052011;28;20206;-75
2022/09/13 05:41:23;;;;;;;19.48;4.85;;;24.40;99.90;;;;;;5069326;28;20235;-74
2022/09/13 05:43:50;;;;;;;18.33;4.65;;;24.40;99.90;;;;;;5069263;28;20195;-74
2022/09/13 05:46:19;;;;;;;17.15;4.40;;;24.50;99.90;;;;;;5063633;28;20179;-74
2022/09/13 05:48:47;;;;;;;15.68;4.95;;;24.50;99.90;;;;;;5068690;28;20194;-75
2022/09/13 05:51:20;;;;;;;12.55;4.18;;;24.60;99.90;;;;;;5056804;28;20201;-74
2022/09/13 05:53:49;;;;;;;14.48;4.40;;;24.70;99.90;;;;;;5068837;28;20284;-74
2022/09/13 05:56:25;;;;;;;15.95;4.30;;;24.80;99.90;;;;;;5070947;28;20228;-75
2022/09/13 05:58:53;;;;;;;19.17;4.70;;;24.90;99.90;;;;;;5073364;28;20186;-74
2022/09/13 06:01:24;;;;;;;16.73;4.78;;;24.90;99.90;;;;;;5047073;28;20895;-74
2022/09/13 06:03:54;;;;;;;13.00;3.97;;;24.80;99.90;;;;;;5077245;28;20198;-74
2022/09/13 06:06:22;;;;;;;15.15;4.10;;;24.80;99.90;;;;;;5065624;28;20204;-74
2022/09/13 06:08:56;;;;;;;15.85;4.35;;;24.70;99.90;;;;;;5084179;28;20288;-74
2022/09/13 06:11:26;;;;;;;13.88;4.50;;;24.70;99.90;;;;;;5052721;28;20191;-74
2022/09/13 06:13:52;;;;;;;19.30;4.38;;;24.60;99.90;;;;;;5048639;28;20211;-74
2022/09/13 06:16:19;;;;;;;14.15;4.15;;;24.60;99.90;;;;;;5063345;28;20532;-74
2022/09/13 06:18:51;;;;;;;15.60;4.03;;;24.70;99.90;;;;;;5050775;28;20270;-74
2022/09/13 06:21:22;;;;;;;16.77;4.28;;;24.70;99.90;;;;;;5088092;28;20186;-75
2022/09/13 06:23:52;;;;;;;15.18;4.28;;;24.70;99.90;;;;;;5072139;28;20186;-74
2022/09/13 06:26:25;;;;;;;11.52;4.13;;;24.80;99.90;;;;;;5073224;28;20179;-75
2022/09/13 06:28:56;;;;;;;16.33;5.22;;;24.90;99.90;;;;;;5068858;28;20189;-75
2022/09/13 06:31:25;;;;;;;15.52;4.18;;;24.90;99.90;;;;;;5056171;28;20230;-74
2022/09/13 06:34:01;;;;;;;12.32;3.72;;;24.90;99.90;;;;;;5049559;28;20253;-74
2022/09/13 06:36:28;;;;;;;16.65;4.47;;;25.00;99.90;;;;;;5068273;28;20277;-74
2022/09/13 06:38:56;;;;;;;9.50;3.35;;;25.10;99.90;;;;;;5104260;28;20190;-74
2022/09/13 06:41:23;;;;;;;16.38;4.30;;;25.10;99.90;;;;;;5088016;28;20430;-74
2022/09/13 06:43:57;;;;;;;12.80;3.63;;;25.20;99.90;;;;;;5088476;28;20458;-74
2022/09/13 06:46:26;;;;;;;11.82;3.85;;;25.10;99.90;;;;;;5076463;28;20269;-74
2022/09/13 06:48:53;;;;;;;14.43;3.88;;;25.30;99.90;;;;;;5064281;28;20194;-74
2022/09/13 06:51:25;;;;;;;10.95;3.20;;;25.40;99.90;;;;;;5081605;28;20558;-74
2022/09/13 06:53:55;;;;;;;14.82;3.90;;;25.60;99.90;;;;;;5067562;28;20207;-74
2022/09/13 06:56:42;;;;;;;11.05;3.03;;;25.70;99.90;;;;;;5064654;28;20187;-74
2022/09/13 06:59:10;;;;;;;12.27;3.50;;;25.60;99.90;;;;;;5072667;28;20187;-74
2022/09/13 07:01:42;;;;;;;12.30;3.25;;;25.60;99.90;;;;;;5053781;28;20201;-74
2022/09/13 07:04:12;;;;;;;9.73;3.20;;;25.60;99.90;;;;;;5075516;28;20327;-74
2022/09/13 07:06:46;;;;;;;12.43;3.10;;;25.60;99.90;;;;;;5081655;28;20186;-74
2022/09/13 07:09:18;;;;;;;12.93;3.47;;;25.60;99.90;;;;;;5067694;28;21236;-73
2022/09/13 07:11:47;;;;;;;12.68;3.25;;;25.60;99.90;;;;;;5069568;28;20885;-74
2022/09/13 07:14:20;;;;;;;11.73;2.92;;;25.70;99.90;;;;;;5040123;28;20555;-74
2022/09/13 07:16:50;;;;;;;15.07;3.30;;;25.90;99.90;;;;;;5046250;28;20214;-72
2022/09/13 07:19:25;;;;;;;13.73;3.33;;;26.10;99.90;;;;;;5068981;28;20171;-72
2022/09/13 07:21:53;;;;;;;9.70;4.00;;;26.10;99.90;;;;;;5070142;28;20182;-72
2022/09/13 07:24:21;;;;;;;10.70;3.45;;;26.30;99.90;;;;;;5070995;28;20193;-72
2022/09/13 07:26:49;;;;;;;12.20;3.08;;;26.40;99.90;;;;;;5069005;28;20180;-72
2022/09/13 07:29:21;;;;;;;17.92;3.40;;;26.50;99.90;;;;;;5056293;28;20251;-72
2022/09/13 07:31:53;;;;;;;9.80;3.08;;;26.60;99.90;;;;;;5085918;28;20225;-73
2022/09/13 07:34:25;;;;;;;10.82;3.30;;;26.70;99.90;;;;;;5080324;28;20200;-72
2022/09/13 07:36:52;;;;;;;10.13;3.25;;;26.80;99.90;;;;;;5070796;28;20228;-72
2022/09/13 08:36:16;;;;;;;13.32;3.67;;;27.40;99.90;;;;;;5133155;27;20573;-71
2022/09/13 08:38:52;;;;;;;12.75;3.42;;;27.70;99.90;;;;;;5081465;28;20775;-71
2022/09/13 08:41:51;;;;;;;12.90;3.10;;;27.90;99.90;;;;;;5051874;28;20180;-72
2022/09/13 08:44:47;;;;;;;10.13;2.60;;;27.80;99.90;;;;;;5087696;28;20534;-72
2022/09/13 08:47:42;;;;;;;13.02;3.10;;;28.00;99.90;;;;;;5094907;28;20531;-72
2022/09/13 08:50:35;;;;;;;9.45;3.33;;;28.20;99.90;;;;;;5107235;28;20162;-72
2022/09/13 08:53:30;;;;;;;13.10;3.55;;;28.20;99.90;;;;;;5088847;28;20290;-72
2022/09/13 08:56:15;;;;;;;9.77;3.40;;;28.30;99.90;;;;;;5086690;28;20700;-72
2022/09/13 08:59:06;;;;;;;11.80;3.13;;;28.30;99.90;;;;;;5085502;28;20186;-72
2022/09/13 09:02:05;;;;;;;13.15;3.00;;;28.20;99.90;;;;;;5093191;28;20205;-72
2022/09/13 09:04:37;;;;;;;8.38;2.85;;;28.20;99.90;;;;;;5103980;28;20268;-72
2022/09/13 09:07:25;;;;;;;9.18;3.30;;;28.30;99.90;;;;;;5079487;28;20178;-72
2022/09/13 09:10:01;;;;;;;16.55;3.67;;;28.60;99.90;;;;;;5081357;28;20288;-72
2022/09/13 09:12:49;;;;;;;14.25;3.22;;;28.80;99.90;;;;;;5106140;28;20262;-72
2022/09/13 09:15:23;;;;;;;10.43;2.92;;;28.90;99.90;;;;;;5082943;28;20780;-71
2022/09/13 09:18:03;;;;;;;10.02;3.33;;;29.00;99.90;;;;;;5085357;28;20186;-72
2022/09/13 09:20:52;;;;;;;12.48;2.95;;;29.10;99.90;;;;;;5113197;27;20185;-72
2022/09/13 09:23:22;;;;;;;11.55;3.53;;;29.10;99.90;;;;;;5097960;28;20177;-72
2022/09/13 09:26:10;;;;;;;8.82;3.30;;;29.20;99.90;;;;;;5085771;28;20516;-72
2022/09/13 09:28:36;;;;;;;11.20;3.55;;;29.50;99.90;;;;;;5066848;28;20186;-72
2022/09/13 09:31:40;;;;;;;11.32;2.95;;;29.70;99.90;;;;;;5085926;28;20198;-72
2022/09/13 09:34:16;;;;;;;9.75;2.97;;;29.80;99.90;;;;;;5106659;27;20219;-73
2022/09/13 10:26:12;;;;;;;13.50;4.38;;;32.60;99.90;;;;;;5045093;28;20596;-73
2022/09/13 10:29:05;;;;;;;10.35;4.25;;;32.80;99.90;;;;;;4985393;28;20215;-72
2022/09/13 10:31:40;;;;;;;13.90;3.83;;;32.00;99.90;;;;;;5014446;28;20204;-73
2022/09/13 10:34:16;;;;;;;16.70;3.80;;;31.70;99.90;;;;;;4998008;28;20191;-72
2022/09/13 10:37:21;;;;;;;7.90;3.78;;;31.40;99.90;;;;;;5006559;28;20235;-73
2022/09/13 10:40:14;;;;;;;9.60;4.25;;;31.30;99.90;;;;;;5013867;28;20315;-73
2022/09/13 10:42:59;;;;;;;9.70;4.50;;;31.20;99.90;;;;;;5017546;28;20219;-74
2022/09/13 10:45:30;;;;;;;14.18;4.65;;;31.00;99.90;;;;;;5031031;28;20187;-74
2022/09/13 10:48:14;;;;;;;10.10;4.57;;;30.90;99.90;;;;;;4987762;28;20185;-73
2022/09/13 10:51:20;;;;;;;9.82;4.43;;;30.80;99.90;;;;;;4987856;28;20188;-73
2022/09/13 10:53:47;;;;;;;13.20;5.43;;;30.60;99.90;;;;;;5011630;28;20218;-73
2022/09/13 10:56:27;;;;;;;13.05;4.75;;;30.00;99.90;;;;;;5021497;28;20185;-74
2022/09/13 10:59:28;;;;;;;6.95;4.75;;;29.70;99.90;;;;;;5018769;28;20649;-74
2022/09/13 11:02:18;;;;;;;10.45;5.03;;;30.10;99.90;;;;;;5006953;28;20266;-73
2022/09/13 11:05:18;;;;;;;13.57;5.97;;;30.30;99.90;;;;;;5001728;28;20192;-73
2022/09/13 11:08:10;;;;;;;11.23;5.43;;;30.20;99.90;;;;;;5019109;28;20284;-73
2022/09/13 11:10:51;;;;;;;10.40;5.35;;;30.10;99.90;;;;;;5017792;28;20192;-73
2022/09/13 11:13:56;;;;;;;9.27;5.05;;;30.30;99.90;;;;;;5013213;28;20197;-73
2022/09/13 11:16:55;;;;;;;11.90;5.25;;;30.30;99.90;;;;;;5006527;28;20192;-74
2022/09/13 11:19:54;;;;;;;11.48;5.43;;;30.30;99.90;;;;;;4988292;28;20212;-73
2022/09/13 11:23:16;;;;;;;14.98;5.25;;;30.10;99.90;;;;;;4991820;28;20740;-73
2022/09/13 11:26:03;;;;;;;15.18;5.28;;;30.10;99.90;;;;;;4990028;28;20204;-73
2022/09/13 11:29:14;;;;;;;8.40;5.13;;;30.10;99.90;;;;;;5010507;28;20271;-73
2022/09/13 11:32:28;;;;;;;13.48;5.70;;;29.80;99.90;;;;;;4975686;28;20178;-73
2022/09/13 11:35:35;;;;;;;17.17;5.38;;;29.70;99.90;;;;;;4991568;28;20177;-74
2022/09/13 11:38:38;;;;;;;11.15;5.40;;;29.70;99.90;;;;;;5012812;28;20176;-73
2022/09/13 11:41:07;;;;;;;8.27;5.25;;;29.80;99.90;;;;;;5004860;28;20219;-73
2022/09/13 11:44:27;;;;;;;14.90;5.47;;;29.40;99.90;;;;;;5011543;28;20181;-73
2022/09/13 11:47:13;;;;;;;16.45;4.75;;;29.50;99.90;;;;;;4975486;28;20268;-73
2022/09/13 11:50:20;;;;;;;7.45;4.65;;;29.50;99.90;;;;;;5013470;28;20181;-73
2022/09/13 11:53:00;;;;;;;8.75;3.70;;;29.40;99.90;;;;;;5011148;28;20180;-73
2022/09/13 11:55:56;;;;;;;5.47;3.63;;;29.50;99.90;;;;;;5002058;28;20189;-73
2022/09/13 11:58:30;;;;;;;11.30;4.28;;;29.50;99.90;;;;;;5008717;28;20176;-73
2022/09/13 12:01:04;;;;;;;12.68;4.20;;;29.50;99.90;;;;;;4990626;28;20292;-73
2022/09/13 12:03:53;;;;;;;8.55;4.10;;;29.40;99.90;;;;;;4994349;28;20191;-73
2022/09/13 12:06:47;;;;;;;10.95;4.13;;;29.50;99.90;;;;;;4992216;28;20220;-74
2022/09/13 12:09:28;;;;;;;7.65;3.63;;;29.40;99.90;;;;;;4999063;28;20722;-73
2022/09/13 12:12:06;;;;;;;8.18;3.38;;;29.40;99.90;;;;;;5014762;28;20806;-73
2022/09/13 12:14:51;;;;;;;8.43;3.70;;;29.40;99.90;;;;;;5008246;28;20195;-73
2022/09/13 12:17:44;;;;;;;11.05;5.10;;;29.40;99.90;;;;;;5008914;28;20197;-73
2022/09/13 12:20:42;;;;;;;8.80;4.30;;;29.40;99.90;;;;;;4991234;28;20205;-73
2022/09/13 12:23:55;;;;;;;6.78;3.70;;;29.40;99.90;;;;;;4972642;28;20185;-73
2022/09/13 12:26:49;;;;;;;8.05;4.43;;;29.40;99.90;;;;;;4943750;28;20324;-74
2022/09/13 12:29:50;;;;;;;8.80;4.43;;;29.30;99.90;;;;;;4986450;28;20192;-73
2022/09/13 12:32:18;;;;;;;8.30;4.05;;;29.30;99.90;;;;;;5022570;28;20196;-73
2022/09/13 12:35:06;;;;;;;7.78;4.28;;;29.30;99.90;;;;;;5011582;28;20296;-73
2022/09/13 12:37:55;;;;;;;10.25;4.80;;;29.20;99.90;;;;;;4978232;28;20220;-73
2022/09/13 12:40:32;;;;;;;12.10;4.68;;;29.00;99.90;;;;;;4994435;28;20279;-73
2022/09/13 12:43:31;;;;;;;11.27;5.20;;;29.00;99.90;;;;;;5006580;28;20193;-73
2022/09/13 12:46:31;;;;;;;19.23;4.82;;;29.00;99.90;;;;;;5007416;28;20223;-73
2022/09/13 12:49:43;;;;;;;8.70;4.88;;;29.00;99.90;;;;;;5019149;28;20220;-73
2022/09/13 12:52:43;;;;;;;10.38;4.70;;;28.90;99.90;;;;;;4977137;28;20284;-73
2022/09/13 12:55:35;;;;;;;11.02;4.38;;;28.80;99.90;;;;;;4986223;28;20903;-74
2022/09/13 12:58:37;;;;;;;14.68;5.03;;;28.80;99.90;;;;;;4982139;28;20265;-73
2022/09/13 13:01:13;;;;;;;12.00;4.65;;;28.60;99.90;;;;;;4999295;28;20234;-73
2022/09/13 13:03:55;;;;;;;10.90;4.75;;;28.60;99.90;;;;;;4974899;28;20204;-73
2022/09/13 13:06:39;;;;;;;9.05;4.40;;;28.60;99.90;;;;;;5015979;28;20873;-74
2022/09/13 13:09:44;;;;;;;8.55;4.78;;;28.60;99.90;;;;;;5005302;28;20634;-73
2022/09/13 13:12:37;;;;;;;12.93;4.25;;;28.80;99.90;;;;;;4988096;28;20192;-73
2022/09/13 13:15:16;;;;;;;11.65;5.50;;;28.80;99.90;;;;;;4982528;28;20192;-73
2022/09/13 13:17:56;;;;;;;9.43;5.28;;;28.80;99.90;;;;;;4994771;28;20220;-73
2022/09/13 13:21:05;;;;;;;15.00;5.50;;;28.70;99.90;;;;;;4982666;28;20850;-73
2022/09/13 13:23:38;;;;;;;16.65;4.95;;;28.70;99.90;;;;;;5002385;28;20683;-74
2022/09/13 13:26:43;;;;;;;10.00;5.30;;;28.60;99.90;;;;;;5003645;28;20577;-73
2022/09/13 13:29:28;;;;;;;10.40;5.65;;;28.50;99.90;;;;;;5005046;28;20173;-73
2022/09/13 13:32:02;;;;;;;10.00;5.53;;;28.50;99.90;;;;;;4999529;28;20670;-73
2022/09/13 13:34:46;;;;;;;10.93;5.63;;;28.40;99.90;;;;;;4991633;28;20235;-73
2022/09/13 13:37:17;;;;;;;11.32;4.43;;;28.40;99.90;;;;;;4988732;28;20231;-73
2022/09/13 13:39:47;;;;;;;6.28;4.53;;;28.50;99.90;;;;;;5010492;28;20638;-73
2022/09/13 13:42:26;;;;;;;14.45;4.47;;;28.50;99.90;;;;;;5001082;28;20296;-73
2022/09/13 13:44:52;;;;;;;8.55;4.85;;;28.40;99.90;;;;;;5010905;28;20492;-73
2022/09/13 13:47:19;;;;;;;9.45;4.93;;;28.40;99.90;;;;;;4976772;28;20193;-73
2022/09/13 13:50:14;;;;;;;9.93;4.45;;;28.30;99.90;;;;;;5009348;28;20173;-73
2022/09/13 13:52:47;;;;;;;16.30;5.40;;;28.30;99.90;;;;;;5006188;28;20188;-73
2022/09/13 13:55:45;;;;;;;11.75;4.53;;;28.40;99.90;;;;;;4992794;28;20312;-73
2022/09/13 13:58:32;;;;;;;7.32;4.97;;;28.30;99.90;;;;;;4959961;28;20556;-73
2022/09/13 14:01:01;;;;;;;9.80;5.18;;;28.20;99.90;;;;;;4965945;28;20258;-73
2022/09/13 14:04:09;;;;;;;10.52;4.90;;;28.20;99.90;;;;;;4983782;28;20197;-73
2022/09/13 14:07:09;;;;;;;15.07;5.10;;;28.20;99.90;;;;;;4981544;28;20203;-73
2022/09/13 14:09:50;;;;;;;10.45;5.30;;;28.20;99.90;;;;;;5011108;28;20195;-73
2022/09/13 14:12:48;;;;;;;10.60;4.90;;;28.10;99.90;;;;;;4999105;28;20191;-73
2022/09/13 14:15:25;;;;;;;11.23;5.18;;;28.10;99.90;;;;;;4985934;28;20184;-73
2022/09/13 14:18:36;;;;;;;14.30;5.60;;;27.90;99.90;;;;;;4987598;28;20188;-73
2022/09/13 14:21:28;;;;;;;9.05;5.35;;;28.00;99.90;;;;;;4973105;28;20666;-73
2022/09/13 14:24:22;;;;;;;12.10;4.97;;;28.00;99.90;;;;;;4972618;28;20296;-74
2022/09/13 14:27:00;;;;;;;12.25;5.22;;;28.00;99.90;;;;;;4972935;28;20327;-74
2022/09/13 14:29:59;;;;;;;12.48;6.38;;;28.00;99.90;;;;;;5004810;28;20192;-74
2022/09/13 14:32:31;;;;;;;13.85;5.78;;;27.90;99.90;;;;;;4985739;28;20177;-73
2022/09/13 14:35:06;;;;;;;12.63;5.45;;;27.80;99.90;;;;;;4999596;28;20176;-73
2022/09/13 14:37:36;;;;;;;11.05;6.22;;;27.70;99.90;;;;;;5009631;28;20183;-73
2022/09/13 14:40:15;;;;;;;11.85;6.53;;;27.60;99.90;;;;;;5008935;28;20181;-73
2022/09/13 14:42:45;;;;;;;15.18;5.78;;;27.50;99.90;;;;;;5010754;28;20290;-73
2022/09/13 14:45:34;;;;;;;11.80;5.15;;;27.50;99.90;;;;;;5010170;28;20184;-73
2022/09/13 14:48:17;;;;;;;9.40;5.88;;;27.40;99.90;;;;;;4972897;28;20178;-73
2022/09/13 14:51:43;;;;;;;18.23;6.40;;;27.30;99.90;;;;;;4981240;28;20181;-73
2022/09/13 14:54:39;;;;;;;12.35;6.68;;;27.20;99.90;;;;;;4932506;29;20194;-73
2022/09/13 14:57:20;;;;;;;14.98;7.28;;;27.20;99.90;;;;;;4949161;28;20179;-73
2022/09/13 14:59:53;;;;;;;12.90;7.13;;;27.20;99.90;;;;;;4971934;28;20192;-73
2022/09/13 15:02:24;;;;;;;10.55;5.88;;;27.10;99.90;;;;;;4995164;28;20236;-73
2022/09/13 15:04:56;;;;;;;8.65;5.70;;;27.10;99.90;;;;;;4984794;28;20272;-73
2022/09/13 15:07:38;;;;;;;12.30;6.32;;;27.10;99.90;;;;;;4991743;28;20533;-73
2022/09/13 15:10:26;;;;;;;11.35;6.53;;;27.00;99.90;;;;;;4991028;28;20638;-73
2022/09/13 15:12:57;;;;;;;12.23;6.43;;;27.00;99.90;;;;;;4979122;28;20282;-73
2022/09/13 15:15:41;;;;;;;12.50;6.97;;;26.90;99.90;;;;;;5011787;28;20192;-73
2022/09/13 15:18:19;;;;;;;10.38;6.85;;;26.80;99.90;;;;;;5024024;28;20188;-73
2022/09/13 15:21:14;;;;;;;11.82;7.32;;;26.70;99.90;;;;;;5019025;28;20264;-73
2022/09/13 15:23:47;;;;;;;13.43;7.47;;;26.70;99.90;;;;;;5009050;28;20193;-73
2022/09/13 15:26:25;;;;;;;17.30;7.57;;;26.50;99.90;;;;;;4960620;28;20189;-73
2022/09/13 15:29:03;;;;;;;12.13;7.22;;;26.30;99.90;;;;;;4987367;28;20250;-74
2022/09/13 15:31:34;;;;;;;16.58;7.93;;;26.30;99.90;;;;;;4980245;28;20183;-73
2022/09/13 15:34:17;;;;;;;12.05;7.53;;;26.20;99.90;;;;;;4993300;28;20729;-74
2022/09/13 15:37:07;;;;;;;14.63;7.60;;;26.20;99.90;;;;;;4993403;28;20192;-73